sensor_id;sensor_type;location;lat;lon;timestamp;P1;durP1;ratioP1;P2;durP2;ratioP2
41293;SDS011;27037;52.010;4.446;2022-10-17T00:01:32;8.25;;;5.80;;
41293;SDS011;27037;52.010;4.446;2022-10-17T00:03:57;10.15;;;6.07;;
41293;SDS011;27037;52.010;4.446;2022-10-17T00:06:23;13.80;;;7.35;;
41293;SDS011;27037;52.010;4.446;2022-10-17T00:08:48;9.93;;;6.30;;
41293;SDS011;27037;52.010;4.446;2022-10-17T00:11:16;10.23;;;7.15;;
41293;SDS011;27037;52.010;4.446;2022-10-17T00:13:45;12.95;;;7.20;;
41293;SDS011;27037;52.010;4.446;2022-10-17T00:16:12;11.65;;;7.10;;
41293;SDS011;27037;52.010;4.446;2022-10-17T00:18:38;11.90;;;6.82;;
41293;SDS011;27037;52.010;4.446;2022-10-17T00:21:03;7.88;;;6.40;;
41293;SDS011;27037;52.010;4.446;2022-10-17T00:23:29;11.55;;;7.25;;
41293;SDS011;27037;52.010;4.446;2022-10-17T00:26:02;10.10;;;6.88;;
41293;SDS011;27037;52.010;4.446;2022-10-17T00:28:29;11.63;;;7.50;;
41293;SDS011;27037;52.010;4.446;2022-10-17T00:30:56;11.35;;;7.78;;
41293;SDS011;27037;52.010;4.446;2022-10-17T00:33:26;12.20;;;8.05;;
41293;SDS011;27037;52.010;4.446;2022-10-17T00:38:27;13.20;;;8.03;;
41293;SDS011;27037;52.010;4.446;2022-10-17T00:40:53;14.40;;;9.15;;
41293;SDS011;27037;52.010;4.446;2022-10-17T00:43:18;14.57;;;8.80;;
41293;SDS011;27037;52.010;4.446;2022-10-17T00:45:44;12.63;;;8.57;;
41293;SDS011;27037;52.010;4.446;2022-10-17T00:48:09;11.77;;;8.65;;
41293;SDS011;27037;52.010;4.446;2022-10-17T00:50:36;13.02;;;8.75;;
41293;SDS011;27037;52.010;4.446;2022-10-17T00:53:04;14.95;;;8.60;;
41293;SDS011;27037;52.010;4.446;2022-10-17T00:55:32;14.60;;;9.23;;
41293;SDS011;27037;52.010;4.446;2022-10-17T00:58:02;14.77;;;9.25;;
41293;SDS011;27037;52.010;4.446;2022-10-17T01:00:30;12.50;;;9.07;;
41293;SDS011;27037;52.010;4.446;2022-10-17T01:02:56;11.07;;;9.00;;
41293;SDS011;27037;52.010;4.446;2022-10-17T01:05:22;13.80;;;9.32;;
41293;SDS011;27037;52.010;4.446;2022-10-17T01:07:48;13.52;;;9.70;;
41293;SDS011;27037;52.010;4.446;2022-10-17T01:10:16;16.00;;;10.20;;
41293;SDS011;27037;52.010;4.446;2022-10-17T01:12:56;12.77;;;9.60;;
41293;SDS011;27037;52.010;4.446;2022-10-17T01:31:35;16.92;;;10.98;;
41293;SDS011;27037;52.010;4.446;2022-10-17T01:44:48;15.80;;;10.75;;
41293;SDS011;27037;52.010;4.446;2022-10-17T01:47:28;18.13;;;11.73;;
41293;SDS011;27037;52.010;4.446;2022-10-17T01:50:06;17.10;;;11.75;;
41293;SDS011;27037;52.010;4.446;2022-10-17T01:52:50;17.20;;;12.38;;
41293;SDS011;27037;52.010;4.446;2022-10-17T01:55:20;16.08;;;12.15;;
41293;SDS011;27037;52.010;4.446;2022-10-17T01:57:53;20.50;;;13.10;;
41293;SDS011;27037;52.010;4.446;2022-10-17T02:02:58;19.75;;;13.55;;
41293;SDS011;27037;52.010;4.446;2022-10-17T02:05:28;18.92;;;13.48;;
41293;SDS011;27037;52.010;4.446;2022-10-17T02:07:56;16.77;;;12.27;;
41293;SDS011;27037;52.010;4.446;2022-10-17T02:12:55;19.00;;;12.90;;
41293;SDS011;27037;52.010;4.446;2022-10-17T02:15:36;26.97;;;13.87;;
41293;SDS011;27037;52.010;4.446;2022-10-17T02:18:56;19.45;;;12.85;;
41293;SDS011;27037;52.010;4.446;2022-10-17T02:21:36;22.67;;;13.18;;
41293;SDS011;27037;52.010;4.446;2022-10-17T02:29:35;25.03;;;14.43;;
41293;SDS011;27037;52.010;4.446;2022-10-17T02:32:10;19.45;;;13.52;;
41293;SDS011;27037;52.010;4.446;2022-10-17T02:34:46;20.75;;;13.60;;
41293;SDS011;27037;52.010;4.446;2022-10-17T02:37:14;24.67;;;14.32;;
41293;SDS011;27037;52.010;4.446;2022-10-17T02:39:46;18.90;;;13.35;;
41293;SDS011;27037;52.010;4.446;2022-10-17T02:42:12;20.58;;;13.55;;
41293;SDS011;27037;52.010;4.446;2022-10-17T02:44:39;20.13;;;13.23;;
41293;SDS011;27037;52.010;4.446;2022-10-17T02:47:22;20.80;;;13.75;;
41293;SDS011;27037;52.010;4.446;2022-10-17T02:49:52;19.40;;;13.70;;
41293;SDS011;27037;52.010;4.446;2022-10-17T02:52:38;20.92;;;13.73;;
41293;SDS011;27037;52.010;4.446;2022-10-17T02:55:17;21.25;;;13.82;;
41293;SDS011;27037;52.010;4.446;2022-10-17T02:57:51;18.13;;;12.82;;
41293;SDS011;27037;52.010;4.446;2022-10-17T03:00:19;19.92;;;13.25;;
41293;SDS011;27037;52.010;4.446;2022-10-17T03:02:47;20.63;;;12.90;;
41293;SDS011;27037;52.010;4.446;2022-10-17T03:05:16;20.65;;;13.23;;
41293;SDS011;27037;52.010;4.446;2022-10-17T03:07:44;19.27;;;11.82;;
41293;SDS011;27037;52.010;4.446;2022-10-17T03:10:10;20.63;;;13.02;;
41293;SDS011;27037;52.010;4.446;2022-10-17T03:12:36;19.58;;;12.18;;
41293;SDS011;27037;52.010;4.446;2022-10-17T03:15:02;17.75;;;12.18;;
41293;SDS011;27037;52.010;4.446;2022-10-17T03:17:28;19.05;;;12.20;;
41293;SDS011;27037;52.010;4.446;2022-10-17T03:19:53;17.25;;;11.18;;
41293;SDS011;27037;52.010;4.446;2022-10-17T03:22:19;17.73;;;11.75;;
41293;SDS011;27037;52.010;4.446;2022-10-17T03:24:44;20.40;;;12.38;;
41293;SDS011;27037;52.010;4.446;2022-10-17T03:27:10;19.38;;;12.10;;
41293;SDS011;27037;52.010;4.446;2022-10-17T03:29:36;22.63;;;13.18;;
41293;SDS011;27037;52.010;4.446;2022-10-17T03:32:02;20.15;;;12.25;;
41293;SDS011;27037;52.010;4.446;2022-10-17T03:34:29;17.25;;;12.13;;
41293;SDS011;27037;52.010;4.446;2022-10-17T03:36:55;21.30;;;12.52;;
41293;SDS011;27037;52.010;4.446;2022-10-17T03:39:20;17.98;;;11.85;;
41293;SDS011;27037;52.010;4.446;2022-10-17T03:41:46;20.45;;;11.13;;
41293;SDS011;27037;52.010;4.446;2022-10-17T03:44:12;19.25;;;12.23;;
41293;SDS011;27037;52.010;4.446;2022-10-17T03:46:37;18.23;;;12.63;;
41293;SDS011;27037;52.010;4.446;2022-10-17T03:49:03;18.08;;;11.60;;
41293;SDS011;27037;52.010;4.446;2022-10-17T03:51:28;19.38;;;12.48;;
41293;SDS011;27037;52.010;4.446;2022-10-17T03:53:54;20.55;;;12.43;;
41293;SDS011;27037;52.010;4.446;2022-10-17T03:56:23;18.70;;;11.38;;
41293;SDS011;27037;52.010;4.446;2022-10-17T03:58:50;16.58;;;12.18;;
41293;SDS011;27037;52.010;4.446;2022-10-17T04:01:16;24.88;;;13.10;;
41293;SDS011;27037;52.010;4.446;2022-10-17T04:03:43;18.88;;;11.43;;
41293;SDS011;27037;52.010;4.446;2022-10-17T04:06:12;17.52;;;11.30;;
41293;SDS011;27037;52.010;4.446;2022-10-17T04:08:38;16.77;;;11.93;;
41293;SDS011;27037;52.010;4.446;2022-10-17T04:11:04;25.95;;;13.52;;
41293;SDS011;27037;52.010;4.446;2022-10-17T04:13:31;18.50;;;12.15;;
41293;SDS011;27037;52.010;4.446;2022-10-17T04:16:01;17.92;;;11.48;;
41293;SDS011;27037;52.010;4.446;2022-10-17T04:18:28;21.73;;;11.77;;
41293;SDS011;27037;52.010;4.446;2022-10-17T04:20:54;20.00;;;12.30;;
41293;SDS011;27037;52.010;4.446;2022-10-17T04:23:20;20.92;;;12.15;;
41293;SDS011;27037;52.010;4.446;2022-10-17T04:25:47;21.23;;;11.85;;
41293;SDS011;27037;52.010;4.446;2022-10-17T04:28:13;18.67;;;11.63;;
41293;SDS011;27037;52.010;4.446;2022-10-17T04:30:39;24.08;;;11.75;;
41293;SDS011;27037;52.010;4.446;2022-10-17T04:33:05;18.55;;;12.25;;
41293;SDS011;27037;52.010;4.446;2022-10-17T04:35:31;19.17;;;11.85;;
41293;SDS011;27037;52.010;4.446;2022-10-17T04:37:56;17.75;;;11.75;;
41293;SDS011;27037;52.010;4.446;2022-10-17T04:40:22;18.50;;;11.90;;
41293;SDS011;27037;52.010;4.446;2022-10-17T04:42:48;16.45;;;11.50;;
41293;SDS011;27037;52.010;4.446;2022-10-17T04:45:13;18.27;;;11.85;;
41293;SDS011;27037;52.010;4.446;2022-10-17T04:47:39;21.85;;;10.85;;
41293;SDS011;27037;52.010;4.446;2022-10-17T04:50:04;19.15;;;11.38;;
41293;SDS011;27037;52.010;4.446;2022-10-17T04:52:30;17.27;;;11.75;;
41293;SDS011;27037;52.010;4.446;2022-10-17T04:54:56;18.00;;;11.95;;
41293;SDS011;27037;52.010;4.446;2022-10-17T04:57:22;17.85;;;11.15;;
41293;SDS011;27037;52.010;4.446;2022-10-17T04:59:48;22.42;;;11.65;;
41293;SDS011;27037;52.010;4.446;2022-10-17T05:02:14;17.17;;;11.13;;
41293;SDS011;27037;52.010;4.446;2022-10-17T05:04:40;18.67;;;10.90;;
41293;SDS011;27037;52.010;4.446;2022-10-17T05:07:06;15.57;;;11.00;;
41293;SDS011;27037;52.010;4.446;2022-10-17T05:09:31;19.17;;;11.02;;
41293;SDS011;27037;52.010;4.446;2022-10-17T05:11:57;19.50;;;11.70;;
41293;SDS011;27037;52.010;4.446;2022-10-17T05:14:22;20.98;;;11.80;;
41293;SDS011;27037;52.010;4.446;2022-10-17T05:16:48;16.38;;;11.40;;
41293;SDS011;27037;52.010;4.446;2022-10-17T05:19:13;20.83;;;11.43;;
41293;SDS011;27037;52.010;4.446;2022-10-17T05:21:39;19.30;;;11.95;;
41293;SDS011;27037;52.010;4.446;2022-10-17T05:24:05;19.83;;;12.10;;
41293;SDS011;27037;52.010;4.446;2022-10-17T05:26:32;19.70;;;11.63;;
41293;SDS011;27037;52.010;4.446;2022-10-17T05:28:58;21.52;;;12.00;;
41293;SDS011;27037;52.010;4.446;2022-10-17T05:31:27;16.52;;;11.32;;
41293;SDS011;27037;52.010;4.446;2022-10-17T05:33:53;18.65;;;11.23;;
41293;SDS011;27037;52.010;4.446;2022-10-17T05:36:19;16.48;;;11.27;;
41293;SDS011;27037;52.010;4.446;2022-10-17T05:38:47;20.15;;;11.30;;
41293;SDS011;27037;52.010;4.446;2022-10-17T05:41:16;19.88;;;11.27;;
41293;SDS011;27037;52.010;4.446;2022-10-17T05:43:43;21.27;;;10.65;;
41293;SDS011;27037;52.010;4.446;2022-10-17T05:46:09;19.15;;;11.63;;
41293;SDS011;27037;52.010;4.446;2022-10-17T05:48:35;16.60;;;10.80;;
41293;SDS011;27037;52.010;4.446;2022-10-17T05:51:02;14.70;;;10.07;;
41293;SDS011;27037;52.010;4.446;2022-10-17T05:53:30;17.17;;;10.73;;
41293;SDS011;27037;52.010;4.446;2022-10-17T05:55:58;18.05;;;10.95;;
41293;SDS011;27037;52.010;4.446;2022-10-17T05:58:24;17.20;;;10.48;;
41293;SDS011;27037;52.010;4.446;2022-10-17T06:00:51;19.40;;;11.55;;
41293;SDS011;27037;52.010;4.446;2022-10-17T06:03:16;17.48;;;10.65;;
41293;SDS011;27037;52.010;4.446;2022-10-17T06:05:42;18.38;;;10.98;;
41293;SDS011;27037;52.010;4.446;2022-10-17T06:08:07;14.57;;;10.18;;
41293;SDS011;27037;52.010;4.446;2022-10-17T06:10:33;19.02;;;10.35;;
41293;SDS011;27037;52.010;4.446;2022-10-17T06:12:59;17.90;;;10.70;;
41293;SDS011;27037;52.010;4.446;2022-10-17T06:15:24;18.40;;;10.95;;
41293;SDS011;27037;52.010;4.446;2022-10-17T06:17:50;19.00;;;11.25;;
41293;SDS011;27037;52.010;4.446;2022-10-17T06:20:15;20.48;;;11.65;;
41293;SDS011;27037;52.010;4.446;2022-10-17T06:22:41;19.17;;;11.25;;
41293;SDS011;27037;52.010;4.446;2022-10-17T06:25:07;18.38;;;11.00;;
41293;SDS011;27037;52.010;4.446;2022-10-17T06:27:33;18.58;;;11.20;;
41293;SDS011;27037;52.010;4.446;2022-10-17T06:29:58;17.48;;;11.07;;
41293;SDS011;27037;52.010;4.446;2022-10-17T06:32:24;21.73;;;10.82;;
41293;SDS011;27037;52.010;4.446;2022-10-17T06:34:49;16.80;;;11.18;;
41293;SDS011;27037;52.010;4.446;2022-10-17T06:37:15;20.92;;;11.52;;
41293;SDS011;27037;52.010;4.446;2022-10-17T06:39:41;13.90;;;10.30;;
41293;SDS011;27037;52.010;4.446;2022-10-17T06:42:06;17.13;;;10.60;;
41293;SDS011;27037;52.010;4.446;2022-10-17T06:44:32;18.50;;;11.10;;
41293;SDS011;27037;52.010;4.446;2022-10-17T06:46:58;17.77;;;10.82;;
41293;SDS011;27037;52.010;4.446;2022-10-17T06:49:25;16.27;;;10.63;;
41293;SDS011;27037;52.010;4.446;2022-10-17T06:51:51;16.35;;;10.85;;
41293;SDS011;27037;52.010;4.446;2022-10-17T06:54:17;17.98;;;11.20;;
41293;SDS011;27037;52.010;4.446;2022-10-17T06:56:42;16.60;;;11.13;;
41293;SDS011;27037;52.010;4.446;2022-10-17T06:59:08;16.25;;;11.27;;
41293;SDS011;27037;52.010;4.446;2022-10-17T07:01:34;19.83;;;11.50;;
41293;SDS011;27037;52.010;4.446;2022-10-17T07:03:59;22.02;;;12.35;;
41293;SDS011;27037;52.010;4.446;2022-10-17T07:06:25;20.85;;;12.68;;
41293;SDS011;27037;52.010;4.446;2022-10-17T07:08:51;20.90;;;12.30;;
41293;SDS011;27037;52.010;4.446;2022-10-17T07:11:17;17.23;;;12.02;;
41293;SDS011;27037;52.010;4.446;2022-10-17T07:13:44;18.60;;;11.77;;
41293;SDS011;27037;52.010;4.446;2022-10-17T07:16:10;18.83;;;12.52;;
41293;SDS011;27037;52.010;4.446;2022-10-17T07:18:36;18.35;;;12.13;;
41293;SDS011;27037;52.010;4.446;2022-10-17T07:21:02;21.25;;;11.48;;
41293;SDS011;27037;52.010;4.446;2022-10-17T07:23:28;20.40;;;11.48;;
41293;SDS011;27037;52.010;4.446;2022-10-17T07:26:01;17.67;;;10.98;;
41293;SDS011;27037;52.010;4.446;2022-10-17T07:28:31;23.13;;;11.63;;
41293;SDS011;27037;52.010;4.446;2022-10-17T07:31:02;17.08;;;11.23;;
41293;SDS011;27037;52.010;4.446;2022-10-17T07:33:29;15.68;;;10.77;;
41293;SDS011;27037;52.010;4.446;2022-10-17T07:35:56;17.98;;;11.15;;
41293;SDS011;27037;52.010;4.446;2022-10-17T07:38:23;17.80;;;10.82;;
41293;SDS011;27037;52.010;4.446;2022-10-17T07:40:58;20.15;;;10.93;;
41293;SDS011;27037;52.010;4.446;2022-10-17T07:43:26;18.40;;;10.68;;
41293;SDS011;27037;52.010;4.446;2022-10-17T07:45:52;21.90;;;11.38;;
41293;SDS011;27037;52.010;4.446;2022-10-17T07:48:19;18.13;;;10.90;;
41293;SDS011;27037;52.010;4.446;2022-10-17T07:50:45;16.63;;;10.68;;
41293;SDS011;27037;52.010;4.446;2022-10-17T07:53:11;17.40;;;10.73;;
41293;SDS011;27037;52.010;4.446;2022-10-17T07:55:37;19.35;;;10.88;;
41293;SDS011;27037;52.010;4.446;2022-10-17T07:58:03;20.55;;;10.85;;
41293;SDS011;27037;52.010;4.446;2022-10-17T08:00:29;18.73;;;11.13;;
41293;SDS011;27037;52.010;4.446;2022-10-17T08:02:54;22.40;;;10.40;;
41293;SDS011;27037;52.010;4.446;2022-10-17T08:05:20;23.08;;;10.80;;
41293;SDS011;27037;52.010;4.446;2022-10-17T08:07:45;19.25;;;10.75;;
41293;SDS011;27037;52.010;4.446;2022-10-17T08:10:11;19.83;;;10.85;;
41293;SDS011;27037;52.010;4.446;2022-10-17T08:12:39;17.13;;;10.50;;
41293;SDS011;27037;52.010;4.446;2022-10-17T08:15:05;18.67;;;11.02;;
41293;SDS011;27037;52.010;4.446;2022-10-17T08:17:33;19.83;;;11.25;;
41293;SDS011;27037;52.010;4.446;2022-10-17T08:19:59;16.77;;;10.80;;
41293;SDS011;27037;52.010;4.446;2022-10-17T08:22:24;18.38;;;11.10;;
41293;SDS011;27037;52.010;4.446;2022-10-17T08:24:50;15.32;;;10.63;;
41293;SDS011;27037;52.010;4.446;2022-10-17T08:27:15;20.50;;;10.93;;
41293;SDS011;27037;52.010;4.446;2022-10-17T08:29:47;18.20;;;11.07;;
41293;SDS011;27037;52.010;4.446;2022-10-17T08:32:16;16.50;;;10.80;;
41293;SDS011;27037;52.010;4.446;2022-10-17T08:34:44;20.23;;;11.18;;
41293;SDS011;27037;52.010;4.446;2022-10-17T08:37:10;17.45;;;10.75;;
41293;SDS011;27037;52.010;4.446;2022-10-17T08:39:38;17.48;;;10.57;;
41293;SDS011;27037;52.010;4.446;2022-10-17T08:47:41;17.13;;;11.30;;
41293;SDS011;27037;52.010;4.446;2022-10-17T08:50:11;20.10;;;10.73;;
41293;SDS011;27037;52.010;4.446;2022-10-17T08:52:53;16.10;;;10.57;;
41293;SDS011;27037;52.010;4.446;2022-10-17T08:55:40;19.52;;;10.63;;
41293;SDS011;27037;52.010;4.446;2022-10-17T08:58:20;19.98;;;11.40;;
41293;SDS011;27037;52.010;4.446;2022-10-17T09:00:52;16.00;;;10.90;;
41293;SDS011;27037;52.010;4.446;2022-10-17T09:03:44;20.25;;;11.40;;
41293;SDS011;27037;52.010;4.446;2022-10-17T09:06:21;20.47;;;10.07;;
41293;SDS011;27037;52.010;4.446;2022-10-17T09:22:24;18.77;;;10.88;;
41293;SDS011;27037;52.010;4.446;2022-10-17T09:24:54;21.35;;;10.88;;
41293;SDS011;27037;52.010;4.446;2022-10-17T09:27:33;20.08;;;11.80;;
41293;SDS011;27037;52.010;4.446;2022-10-17T09:32:50;17.85;;;10.50;;
41293;SDS011;27037;52.010;4.446;2022-10-17T09:35:17;17.75;;;10.68;;
41293;SDS011;27037;52.010;4.446;2022-10-17T09:37:44;18.08;;;10.45;;
41293;SDS011;27037;52.010;4.446;2022-10-17T09:40:18;18.17;;;9.73;;
41293;SDS011;27037;52.010;4.446;2022-10-17T09:42:48;15.20;;;9.32;;
41293;SDS011;27037;52.010;4.446;2022-10-17T09:47:49;12.88;;;8.25;;
41293;SDS011;27037;52.010;4.446;2022-10-17T09:52:52;17.35;;;9.65;;
41293;SDS011;27037;52.010;4.446;2022-10-17T09:55:25;18.95;;;9.93;;
41293;SDS011;27037;52.010;4.446;2022-10-17T09:58:04;17.52;;;9.90;;
41293;SDS011;27037;52.010;4.446;2022-10-17T10:00:35;16.13;;;10.00;;
41293;SDS011;27037;52.010;4.446;2022-10-17T10:03:18;16.45;;;9.75;;
41293;SDS011;27037;52.010;4.446;2022-10-17T10:06:02;21.02;;;10.10;;
41293;SDS011;27037;52.010;4.446;2022-10-17T10:08:48;13.52;;;8.88;;
41293;SDS011;27037;52.010;4.446;2022-10-17T10:11:22;16.73;;;9.32;;
41293;SDS011;27037;52.010;4.446;2022-10-17T10:14:10;13.80;;;9.15;;
41293;SDS011;27037;52.010;4.446;2022-10-17T10:16:42;14.63;;;8.98;;
41293;SDS011;27037;52.010;4.446;2022-10-17T10:19:28;13.65;;;8.75;;
41293;SDS011;27037;52.010;4.446;2022-10-17T10:21:58;14.48;;;8.85;;
41293;SDS011;27037;52.010;4.446;2022-10-17T10:24:25;13.05;;;8.23;;
41293;SDS011;27037;52.010;4.446;2022-10-17T10:26:51;12.65;;;8.35;;
41293;SDS011;27037;52.010;4.446;2022-10-17T10:29:29;15.55;;;8.13;;
41293;SDS011;27037;52.010;4.446;2022-10-17T10:32:08;13.38;;;7.53;;
41293;SDS011;27037;52.010;4.446;2022-10-17T10:34:34;11.15;;;7.20;;
41293;SDS011;27037;52.010;4.446;2022-10-17T10:37:16;14.40;;;7.38;;
41293;SDS011;27037;52.010;4.446;2022-10-17T10:39:48;11.15;;;6.38;;
41293;SDS011;27037;52.010;4.446;2022-10-17T10:42:22;9.68;;;5.70;;
41293;SDS011;27037;52.010;4.446;2022-10-17T10:44:56;12.57;;;5.85;;
41293;SDS011;27037;52.010;4.446;2022-10-17T10:47:29;6.63;;;3.83;;
41293;SDS011;27037;52.010;4.446;2022-10-17T10:55:46;6.18;;;3.30;;
41293;SDS011;27037;52.010;4.446;2022-10-17T10:58:22;4.43;;;3.50;;
41293;SDS011;27037;52.010;4.446;2022-10-17T11:01:20;7.82;;;3.60;;
41293;SDS011;27037;52.010;4.446;2022-10-17T11:06:18;5.55;;;3.30;;
41293;SDS011;27037;52.010;4.446;2022-10-17T11:11:44;6.88;;;3.00;;
41293;SDS011;27037;52.010;4.446;2022-10-17T11:14:36;6.53;;;2.83;;
41293;SDS011;27037;52.010;4.446;2022-10-17T11:22:32;6.30;;;3.25;;
41293;SDS011;27037;52.010;4.446;2022-10-17T11:25:21;5.80;;;3.13;;
41293;SDS011;27037;52.010;4.446;2022-10-17T11:28:12;5.82;;;3.17;;
41293;SDS011;27037;52.010;4.446;2022-10-17T11:30:45;7.72;;;3.35;;
41293;SDS011;27037;52.010;4.446;2022-10-17T11:33:31;7.50;;;3.38;;
41293;SDS011;27037;52.010;4.446;2022-10-17T11:36:20;6.55;;;3.40;;
41293;SDS011;27037;52.010;4.446;2022-10-17T11:38:51;6.38;;;3.75;;
41293;SDS011;27037;52.010;4.446;2022-10-17T11:41:25;5.32;;;3.70;;
41293;SDS011;27037;52.010;4.446;2022-10-17T11:46:39;7.80;;;5.10;;
41293;SDS011;27037;52.010;4.446;2022-10-17T11:49:09;7.18;;;4.90;;
41293;SDS011;27037;52.010;4.446;2022-10-17T11:52:07;11.38;;;5.28;;
41293;SDS011;27037;52.010;4.446;2022-10-17T11:54:40;11.20;;;5.70;;
41293;SDS011;27037;52.010;4.446;2022-10-17T11:57:24;9.57;;;6.00;;
41293;SDS011;27037;52.010;4.446;2022-10-17T12:05:41;10.55;;;5.70;;
41293;SDS011;27037;52.010;4.446;2022-10-17T12:08:17;8.60;;;5.50;;
41293;SDS011;27037;52.010;4.446;2022-10-17T12:18:43;9.27;;;4.50;;
41293;SDS011;27037;52.010;4.446;2022-10-17T12:21:11;8.25;;;4.35;;
41293;SDS011;27037;52.010;4.446;2022-10-17T12:23:36;7.22;;;4.40;;
41293;SDS011;27037;52.010;4.446;2022-10-17T12:26:04;7.32;;;4.20;;
41293;SDS011;27037;52.010;4.446;2022-10-17T12:39:40;6.18;;;3.75;;
41293;SDS011;27037;52.010;4.446;2022-10-17T12:49:21;5.22;;;4.03;;
41293;SDS011;27037;52.010;4.446;2022-10-17T12:54:53;7.95;;;4.03;;
41293;SDS011;27037;52.010;4.446;2022-10-17T12:57:37;7.80;;;3.92;;
41293;SDS011;27037;52.010;4.446;2022-10-17T13:03:17;6.55;;;4.28;;
41293;SDS011;27037;52.010;4.446;2022-10-17T13:05:53;7.07;;;4.20;;
41293;SDS011;27037;52.010;4.446;2022-10-17T13:08:28;5.82;;;3.95;;
41293;SDS011;27037;52.010;4.446;2022-10-17T13:10:56;6.65;;;3.95;;
41293;SDS011;27037;52.010;4.446;2022-10-17T13:13:32;9.68;;;3.92;;
41293;SDS011;27037;52.010;4.446;2022-10-17T13:16:00;10.43;;;3.97;;
41293;SDS011;27037;52.010;4.446;2022-10-17T13:18:26;8.25;;;4.25;;
41293;SDS011;27037;52.010;4.446;2022-10-17T13:20:54;6.18;;;4.10;;
41293;SDS011;27037;52.010;4.446;2022-10-17T13:23:21;6.30;;;3.53;;
41293;SDS011;27037;52.010;4.446;2022-10-17T13:26:00;5.97;;;3.70;;
41293;SDS011;27037;52.010;4.446;2022-10-17T13:28:30;7.70;;;3.65;;
41293;SDS011;27037;52.010;4.446;2022-10-17T13:30:56;6.72;;;3.20;;
41293;SDS011;27037;52.010;4.446;2022-10-17T13:33:27;6.45;;;2.95;;
41293;SDS011;27037;52.010;4.446;2022-10-17T13:35:57;4.80;;;3.22;;
41293;SDS011;27037;52.010;4.446;2022-10-17T13:38:25;8.20;;;3.08;;
41293;SDS011;27037;52.010;4.446;2022-10-17T13:40:53;7.82;;;3.03;;
41293;SDS011;27037;52.010;4.446;2022-10-17T13:43:20;5.93;;;3.08;;
41293;SDS011;27037;52.010;4.446;2022-10-17T13:45:52;9.73;;;2.92;;
41293;SDS011;27037;52.010;4.446;2022-10-17T13:48:22;6.85;;;2.90;;
41293;SDS011;27037;52.010;4.446;2022-10-17T13:50:54;10.50;;;2.90;;
41293;SDS011;27037;52.010;4.446;2022-10-17T13:53:28;9.93;;;3.08;;
41293;SDS011;27037;52.010;4.446;2022-10-17T13:56:05;8.02;;;3.15;;
41293;SDS011;27037;52.010;4.446;2022-10-17T14:01:07;8.73;;;3.10;;
41293;SDS011;27037;52.010;4.446;2022-10-17T14:03:34;6.72;;;2.80;;
41293;SDS011;27037;52.010;4.446;2022-10-17T14:11:26;7.03;;;2.88;;
41293;SDS011;27037;52.010;4.446;2022-10-17T14:13:57;7.32;;;2.75;;
41293;SDS011;27037;52.010;4.446;2022-10-17T14:16:24;7.65;;;2.63;;
41293;SDS011;27037;52.010;4.446;2022-10-17T14:18:52;12.68;;;3.10;;
41293;SDS011;27037;52.010;4.446;2022-10-17T14:21:20;9.77;;;3.17;;
41293;SDS011;27037;52.010;4.446;2022-10-17T14:23:47;7.22;;;2.80;;
41293;SDS011;27037;52.010;4.446;2022-10-17T14:26:15;6.97;;;2.85;;
41293;SDS011;27037;52.010;4.446;2022-10-17T14:29:04;5.90;;;2.75;;
41293;SDS011;27037;52.010;4.446;2022-10-17T14:34:15;6.15;;;3.15;;
41293;SDS011;27037;52.010;4.446;2022-10-17T14:36:45;9.88;;;3.22;;
41293;SDS011;27037;52.010;4.446;2022-10-17T14:39:17;6.10;;;3.22;;
41293;SDS011;27037;52.010;4.446;2022-10-17T14:41:46;9.88;;;3.40;;
41293;SDS011;27037;52.010;4.446;2022-10-17T14:44:23;8.60;;;2.97;;
41293;SDS011;27037;52.010;4.446;2022-10-17T14:46:58;7.55;;;2.95;;
41293;SDS011;27037;52.010;4.446;2022-10-17T14:49:47;5.97;;;2.80;;
41293;SDS011;27037;52.010;4.446;2022-10-17T14:54:40;8.05;;;2.80;;
41293;SDS011;27037;52.010;4.446;2022-10-17T14:57:26;6.50;;;3.10;;
41293;SDS011;27037;52.010;4.446;2022-10-17T15:00:03;6.53;;;2.75;;
41293;SDS011;27037;52.010;4.446;2022-10-17T15:02:29;7.13;;;3.28;;
41293;SDS011;27037;52.010;4.446;2022-10-17T15:04:55;8.10;;;3.13;;
41293;SDS011;27037;52.010;4.446;2022-10-17T15:07:20;9.52;;;3.42;;
41293;SDS011;27037;52.010;4.446;2022-10-17T15:09:48;5.72;;;2.58;;
41293;SDS011;27037;52.010;4.446;2022-10-17T15:12:16;9.82;;;3.08;;
41293;SDS011;27037;52.010;4.446;2022-10-17T15:14:44;11.43;;;3.38;;
41293;SDS011;27037;52.010;4.446;2022-10-17T15:17:13;6.60;;;3.22;;
41293;SDS011;27037;52.010;4.446;2022-10-17T15:19:42;7.68;;;2.83;;
41293;SDS011;27037;52.010;4.446;2022-10-17T15:22:08;9.68;;;3.15;;
41293;SDS011;27037;52.010;4.446;2022-10-17T15:24:33;8.85;;;3.58;;
41293;SDS011;27037;52.010;4.446;2022-10-17T15:26:59;8.90;;;3.70;;
41293;SDS011;27037;52.010;4.446;2022-10-17T15:29:24;8.18;;;3.22;;
41293;SDS011;27037;52.010;4.446;2022-10-17T15:31:50;7.57;;;3.08;;
41293;SDS011;27037;52.010;4.446;2022-10-17T15:34:16;9.18;;;3.15;;
41293;SDS011;27037;52.010;4.446;2022-10-17T15:36:47;8.27;;;3.42;;
41293;SDS011;27037;52.010;4.446;2022-10-17T15:39:14;9.45;;;3.60;;
41293;SDS011;27037;52.010;4.446;2022-10-17T15:41:39;8.38;;;2.97;;
41293;SDS011;27037;52.010;4.446;2022-10-17T15:44:05;6.75;;;3.40;;
41293;SDS011;27037;52.010;4.446;2022-10-17T15:46:34;7.03;;;3.33;;
41293;SDS011;27037;52.010;4.446;2022-10-17T15:49:01;8.20;;;3.58;;
41293;SDS011;27037;52.010;4.446;2022-10-17T15:51:33;6.70;;;3.47;;
41293;SDS011;27037;52.010;4.446;2022-10-17T15:53:59;9.13;;;3.15;;
41293;SDS011;27037;52.010;4.446;2022-10-17T15:56:28;9.98;;;3.03;;
41293;SDS011;27037;52.010;4.446;2022-10-17T15:58:59;8.17;;;3.07;;
41293;SDS011;27037;52.010;4.446;2022-10-17T16:01:30;13.85;;;3.53;;
41293;SDS011;27037;52.010;4.446;2022-10-17T16:03:58;10.55;;;3.38;;
41293;SDS011;27037;52.010;4.446;2022-10-17T16:06:24;12.27;;;3.40;;
41293;SDS011;27037;52.010;4.446;2022-10-17T16:08:50;8.50;;;3.45;;
41293;SDS011;27037;52.010;4.446;2022-10-17T16:13:54;7.63;;;2.88;;
41293;SDS011;27037;52.010;4.446;2022-10-17T16:16:21;7.63;;;2.60;;
41293;SDS011;27037;52.010;4.446;2022-10-17T16:18:47;8.52;;;2.50;;
41293;SDS011;27037;52.010;4.446;2022-10-17T16:21:13;7.00;;;2.67;;
41293;SDS011;27037;52.010;4.446;2022-10-17T16:23:40;10.02;;;2.70;;
41293;SDS011;27037;52.010;4.446;2022-10-17T16:26:06;8.38;;;2.78;;
41293;SDS011;27037;52.010;4.446;2022-10-17T16:28:32;5.07;;;1.90;;
41293;SDS011;27037;52.010;4.446;2022-10-17T16:30:58;7.35;;;2.20;;
41293;SDS011;27037;52.010;4.446;2022-10-17T16:33:23;6.70;;;2.40;;
41293;SDS011;27037;52.010;4.446;2022-10-17T16:35:49;7.05;;;1.75;;
41293;SDS011;27037;52.010;4.446;2022-10-17T16:38:15;10.52;;;2.42;;
41293;SDS011;27037;52.010;4.446;2022-10-17T16:40:41;7.80;;;2.30;;
41293;SDS011;27037;52.010;4.446;2022-10-17T16:43:08;9.48;;;2.28;;
41293;SDS011;27037;52.010;4.446;2022-10-17T16:45:36;6.22;;;2.17;;
41293;SDS011;27037;52.010;4.446;2022-10-17T16:48:01;7.18;;;2.13;;
41293;SDS011;27037;52.010;4.446;2022-10-17T16:50:27;6.68;;;1.92;;
41293;SDS011;27037;52.010;4.446;2022-10-17T16:52:55;7.00;;;1.70;;
41293;SDS011;27037;52.010;4.446;2022-10-17T16:55:20;9.07;;;2.05;;
41293;SDS011;27037;52.010;4.446;2022-10-17T16:57:46;9.75;;;2.38;;
41293;SDS011;27037;52.010;4.446;2022-10-17T17:00:13;7.90;;;2.30;;
41293;SDS011;27037;52.010;4.446;2022-10-17T17:02:39;9.32;;;2.53;;
41293;SDS011;27037;52.010;4.446;2022-10-17T17:05:05;8.43;;;2.90;;